Platte, Nebraska
Current Conditions -  °F | °C
As of 7:53 PM on Saturday 20 Dec 2014 (Local Time) from KHSI Reporting Station
Haze Haze  
Wind Chill: 27°   Ceiling: Unl
Heat Index: 33°   Visibility: 6mi
Dew Point: 31°   Wind: 7mph
Humidity: 92%   Direction: 160°SSE
Pressure: 29.97"   Gusts: NA
Location:  40.6115°N, 98.6672°W
Report Text: KHSI 210153Z AUTO 16006KT 6SM BR CLR 01/M01 A2997 RMK AO2 SLP167 T00061006
Loading
Personal Weather Stations






























Interactive Weather Map New forecast layout! Learn more

10-Day Weather Forecast

Advertisements
Track Severe Weather on mobile